Time;durP1;ratioP1;P1;durP2;ratioP2;P2;SDS_P1;SDS_P2;PMS_P1;PMS_P2;Temp;Humidity;BMP_temperature;BMP_pressure;BME280_temperature;BME280_humidity;BME280_pressure;Samples;Min_cycle;Max_cycle;Signal;HPM_P1;HPM_P2
2021/09/15 00:02:23;;;;;;;3.60;2.40;;;19.70;55.10;;;;;;4854921;29;20288;-84
2021/09/15 00:04:49;;;;;;;3.33;2.60;;;19.60;55.00;;;;;;4854801;29;20195;-80
2021/09/15 00:07:15;;;;;;;2.38;2.17;;;19.70;55.00;;;;;;4854277;29;20227;-81
2021/09/15 00:09:41;;;;;;;3.38;2.75;;;19.70;55.10;;;;;;4854202;29;20185;-86
2021/09/15 00:12:06;;;;;;;2.72;2.30;;;19.60;55.10;;;;;;4858022;29;20583;-81
2021/09/15 00:14:33;;;;;;;2.70;2.40;;;19.70;55.40;;;;;;4858122;29;20181;-81
2021/09/15 00:17:00;;;;;;;2.60;2.38;;;19.60;55.20;;;;;;4842918;29;20177;-85
2021/09/15 00:19:26;;;;;;;2.75;2.40;;;19.50;55.10;;;;;;4858444;29;20212;-81
2021/09/15 00:21:51;;;;;;;3.22;2.47;;;19.60;55.30;;;;;;4839270;29;20595;-83
2021/09/15 00:24:18;;;;;;;2.60;2.40;;;19.60;55.50;;;;;;4840013;29;20214;-84
2021/09/15 00:26:49;;;;;;;2.90;2.50;;;19.60;55.50;;;;;;4817386;29;20261;-85
2021/09/15 00:29:16;;;;;;;2.63;2.42;;;19.60;55.50;;;;;;4876513;29;20187;-83
2021/09/15 00:31:42;;;;;;;4.38;2.50;;;19.60;55.50;;;;;;4860978;29;20191;-84
2021/09/15 00:34:08;;;;;;;2.70;2.50;;;19.60;55.50;;;;;;4875770;29;20172;-85
2021/09/15 00:36:34;;;;;;;2.97;2.47;;;19.60;55.60;;;;;;4860262;29;20188;-81
2021/09/15 00:38:59;;;;;;;2.67;2.42;;;19.50;55.60;;;;;;4860339;29;20175;-81
2021/09/15 00:41:34;;;;;;;3.35;2.55;;;19.50;55.70;;;;;;4860381;29;20248;-83
2021/09/15 00:44:02;;;;;;;3.05;2.60;;;19.60;55.70;;;;;;4875501;29;20171;-83
2021/09/15 00:46:28;;;;;;;2.38;2.10;;;19.60;55.80;;;;;;4860643;29;20212;-86
2021/09/15 00:48:54;;;;;;;3.25;2.40;;;19.50;55.90;;;;;;4875175;29;20231;-82
2021/09/15 00:51:20;;;;;;;2.75;2.40;;;19.60;55.80;;;;;;4878758;29;20687;-83
2021/09/15 00:53:46;;;;;;;3.88;2.53;;;19.60;55.80;;;;;;4877425;29;20219;-83
2021/09/15 00:56:12;;;;;;;3.03;2.20;;;19.50;55.80;;;;;;4895641;29;20183;-82
2021/09/15 00:58:38;;;;;;;2.97;2.67;;;19.50;55.70;;;;;;4894803;29;20605;-81
2021/09/15 01:01:04;;;;;;;2.95;2.22;;;19.70;55.80;;;;;;4895599;29;20634;-86
2021/09/15 01:03:30;;;;;;;2.30;2.10;;;19.50;55.90;;;;;;4910974;29;20168;-84
2021/09/15 01:05:55;;;;;;;2.55;2.30;;;19.60;55.80;;;;;;4874794;29;20215;-82
2021/09/15 01:08:23;;;;;;;2.60;2.40;;;19.60;55.80;;;;;;4875310;29;20609;-84
2021/09/15 01:10:50;;;;;;;3.08;2.40;;;19.60;55.80;;;;;;4889996;29;20256;-83
2021/09/15 01:13:16;;;;;;;2.50;2.30;;;19.50;55.80;;;;;;4874539;29;20552;-84
2021/09/15 01:15:46;;;;;;;3.05;2.35;;;19.60;55.80;;;;;;4890541;29;20224;-82
2021/09/15 01:18:15;;;;;;;2.50;2.25;;;19.60;55.80;;;;;;4872464;29;20275;-82
2021/09/15 01:20:41;;;;;;;3.13;2.50;;;19.50;55.60;;;;;;4842755;29;20763;-83
2021/09/15 01:23:07;;;;;;;2.80;2.40;;;19.50;55.50;;;;;;4840078;29;20201;-85
2021/09/15 01:25:33;;;;;;;2.75;2.40;;;19.60;56.50;;;;;;4841428;29;20740;-82
2021/09/15 01:27:58;;;;;;;2.88;2.38;;;19.50;55.80;;;;;;4841497;29;20196;-81
2021/09/15 01:30:25;;;;;;;2.72;2.40;;;19.50;55.90;;;;;;4840504;29;20171;-80
2021/09/15 01:32:55;;;;;;;2.42;2.22;;;19.60;56.00;;;;;;4855943;29;20666;-81
2021/09/15 01:35:21;;;;;;;2.70;2.33;;;19.50;55.80;;;;;;4856128;29;20181;-83
2021/09/15 01:37:47;;;;;;;2.30;2.00;;;19.50;56.00;;;;;;4872946;29;20193;-85
2021/09/15 01:40:14;;;;;;;3.13;2.33;;;19.50;55.80;;;;;;4877782;29;20171;-83
2021/09/15 01:42:41;;;;;;;3.05;2.45;;;19.50;55.90;;;;;;4877982;29;20183;-84
2021/09/15 01:45:08;;;;;;;2.90;2.42;;;19.50;56.00;;;;;;4861729;29;20168;-81
2021/09/15 01:47:34;;;;;;;2.75;2.22;;;19.50;56.10;;;;;;4862161;29;20223;-82
2021/09/15 01:50:00;;;;;;;2.85;2.35;;;19.50;56.00;;;;;;4876089;29;20203;-82
2021/09/15 01:52:26;;;;;;;3.22;2.55;;;19.50;56.00;;;;;;4894967;29;20179;-82
2021/09/15 01:54:52;;;;;;;2.92;2.63;;;19.50;56.00;;;;;;4909553;29;20164;-85
2021/09/15 01:57:18;;;;;;;2.80;2.40;;;19.40;56.10;;;;;;4874322;29;20255;-82
2021/09/15 01:59:48;;;;;;;2.30;2.10;;;19.50;56.20;;;;;;4874877;29;20215;-84
2021/09/15 02:02:15;;;;;;;3.30;2.40;;;19.50;56.20;;;;;;4890042;29;20216;-85
2021/09/15 02:04:41;;;;;;;3.05;2.63;;;19.40;56.10;;;;;;4890239;29;20172;-84
2021/09/15 02:07:08;;;;;;;2.88;2.47;;;19.60;56.20;;;;;;4874381;29;20287;-83
2021/09/15 02:09:35;;;;;;;3.65;2.65;;;19.50;56.10;;;;;;4889844;29;20172;-84
2021/09/15 02:12:03;;;;;;;3.35;2.70;;;19.50;56.00;;;;;;4874255;29;20225;-81
2021/09/15 02:14:31;;;;;;;2.70;2.45;;;19.50;56.10;;;;;;4890268;29;20172;-85
2021/09/15 02:16:56;;;;;;;2.90;2.28;;;19.50;56.10;;;;;;4873941;29;20188;-82
2021/09/15 02:19:24;;;;;;;2.60;2.40;;;19.60;56.00;;;;;;4834692;29;20238;-82
2021/09/15 02:21:51;;;;;;;2.50;2.30;;;19.50;56.10;;;;;;4800851;29;20262;-83
2021/09/15 02:24:18;;;;;;;2.60;2.35;;;19.50;56.20;;;;;;4800945;29;20285;-83
2021/09/15 02:26:45;;;;;;;2.60;2.40;;;19.50;56.20;;;;;;4801181;29;20202;-83
2021/09/15 02:29:12;;;;;;;2.40;2.20;;;19.50;56.20;;;;;;4832532;29;20229;-85
2021/09/15 02:31:39;;;;;;;2.50;2.30;;;19.50;56.20;;;;;;4821669;29;20172;-85
2021/09/15 02:34:05;;;;;;;3.08;2.35;;;19.50;56.20;;;;;;4836325;29;20196;-82
2021/09/15 02:36:34;;;;;;;2.55;2.20;;;19.50;56.30;;;;;;4821623;29;20173;-83
2021/09/15 02:39:00;;;;;;;2.83;2.53;;;19.50;56.40;;;;;;4821758;29;20232;-80
2021/09/15 02:41:25;;;;;;;2.58;2.28;;;19.40;56.30;;;;;;4821591;29;20185;-81
2021/09/15 02:43:51;;;;;;;2.90;2.40;;;19.50;56.20;;;;;;4821464;29;20196;-82
2021/09/15 02:46:26;;;;;;;2.90;2.35;;;19.40;56.40;;;;;;4821775;29;20302;-83
2021/09/15 02:48:52;;;;;;;2.70;2.22;;;19.50;56.40;;;;;;4837138;29;20221;-82
2021/09/15 02:51:17;;;;;;;3.22;2.67;;;19.50;56.40;;;;;;4840226;29;20216;-80
2021/09/15 02:53:43;;;;;;;2.88;2.50;;;19.50;56.50;;;;;;4854312;29;20197;-81
2021/09/15 02:56:09;;;;;;;2.95;2.30;;;19.40;56.40;;;;;;4869809;29;20244;-83
2021/09/15 02:58:35;;;;;;;2.83;2.38;;;19.50;56.40;;;;;;4869891;29;20275;-82
2021/09/15 03:01:00;;;;;;;3.08;2.30;;;19.50;56.50;;;;;;4854841;29;20239;-83
2021/09/15 03:03:26;;;;;;;2.78;2.47;;;19.40;56.40;;;;;;4854693;29;20173;-82
2021/09/15 03:05:52;;;;;;;2.58;2.38;;;19.60;56.60;;;;;;4853868;29;20612;-83
2021/09/15 03:08:17;;;;;;;2.92;2.38;;;19.40;56.60;;;;;;4853534;29;20196;-82
2021/09/15 03:10:43;;;;;;;2.72;2.10;;;19.40;56.60;;;;;;4853611;29;20194;-84
2021/09/15 03:13:09;;;;;;;2.40;2.20;;;19.40;56.90;;;;;;4868845;29;20291;-84
2021/09/15 03:15:35;;;;;;;2.58;2.38;;;19.40;56.90;;;;;;4853425;29;20183;-83
2021/09/15 03:18:01;;;;;;;2.63;2.22;;;19.40;56.90;;;;;;4864492;29;20187;-84
2021/09/15 03:20:27;;;;;;;3.08;2.50;;;19.30;56.90;;;;;;4860151;29;20183;-84
2021/09/15 03:22:55;;;;;;;2.47;2.28;;;19.40;57.00;;;;;;4875848;29;20171;-85
2021/09/15 03:25:23;;;;;;;2.20;2.00;;;19.40;56.90;;;;;;4859957;29;20167;-85
2021/09/15 03:27:48;;;;;;;2.70;2.30;;;19.40;57.00;;;;;;4860053;29;20263;-83
2021/09/15 03:30:16;;;;;;;2.42;2.00;;;19.50;56.90;;;;;;4859927;29;20602;-84
2021/09/15 03:32:50;;;;;;;2.35;1.90;;;19.40;56.90;;;;;;4859609;29;20191;-84
2021/09/15 03:35:16;;;;;;;2.10;1.90;;;19.40;57.10;;;;;;4890729;29;20204;-83
2021/09/15 03:37:42;;;;;;;2.15;1.80;;;19.30;57.10;;;;;;4860389;29;20175;-84
2021/09/15 03:40:09;;;;;;;2.15;1.73;;;19.40;57.30;;;;;;4860081;29;20175;-82
2021/09/15 03:42:34;;;;;;;2.25;1.90;;;19.30;57.40;;;;;;4890849;29;20615;-80
2021/09/15 03:45:04;;;;;;;2.40;2.00;;;19.40;57.40;;;;;;4890201;29;20242;-81
2021/09/15 03:47:29;;;;;;;2.10;1.90;;;19.40;57.30;;;;;;4861214;29;20227;-83
2021/09/15 03:49:56;;;;;;;2.65;2.13;;;19.40;57.40;;;;;;4906559;29;20164;-83
2021/09/15 03:52:23;;;;;;;2.20;1.85;;;19.40;57.50;;;;;;4892025;29;20175;-84
2021/09/15 03:54:53;;;;;;;2.30;2.10;;;19.30;57.30;;;;;;4890172;29;20171;-83
2021/09/15 03:57:18;;;;;;;2.30;2.10;;;19.30;57.40;;;;;;4891112;29;20202;-81
2021/09/15 03:59:44;;;;;;;1.70;1.60;;;19.30;57.40;;;;;;4890566;29;20180;-85
2021/09/15 04:02:11;;;;;;;2.40;2.20;;;19.30;57.50;;;;;;4891001;29;20171;-85
2021/09/15 04:04:36;;;;;;;2.28;2.08;;;19.30;57.50;;;;;;4890699;29;20523;-82
2021/09/15 04:07:02;;;;;;;2.80;1.80;;;19.30;57.50;;;;;;4890001;29;20294;-83
2021/09/15 04:09:32;;;;;;;2.28;1.90;;;19.30;57.50;;;;;;4890157;29;20627;-84
2021/09/15 04:12:01;;;;;;;2.20;2.00;;;19.30;57.60;;;;;;4890526;29;20168;-86
2021/09/15 04:14:29;;;;;;;2.10;1.90;;;19.30;57.70;;;;;;4890823;29;20174;-82
2021/09/15 04:16:54;;;;;;;2.17;1.98;;;19.20;57.50;;;;;;4890527;29;20186;-83
2021/09/15 04:19:20;;;;;;;2.67;1.95;;;19.30;57.70;;;;;;4906209;29;20211;-82
2021/09/15 04:21:48;;;;;;;2.42;2.00;;;19.30;57.50;;;;;;4890501;29;20171;-84
2021/09/15 04:24:34;;;;;;;2.53;2.20;;;19.30;57.30;;;;;;4890378;29;20223;-84
2021/09/15 04:32:18;;;;;;;1.90;1.70;;;19.20;57.50;;;;;;4904358;29;20155;-85
2021/09/15 04:34:45;;;;;;;2.15;1.95;;;19.20;57.50;;;;;;4888041;29;20262;-84
2021/09/15 04:37:11;;;;;;;2.25;1.92;;;19.30;57.60;;;;;;4872830;29;20234;-85
2021/09/15 04:39:37;;;;;;;1.70;1.60;;;19.20;57.50;;;;;;4857212;29;20199;-83
2021/09/15 04:42:05;;;;;;;2.03;1.67;;;19.20;57.50;;;;;;4872371;29;20187;-85
2021/09/15 04:44:30;;;;;;;1.83;1.73;;;19.30;57.50;;;;;;4869846;29;20184;-83
2021/09/15 04:46:56;;;;;;;2.22;1.95;;;19.30;57.50;;;;;;4862197;29;20195;-81
2021/09/15 04:49:24;;;;;;;2.00;1.80;;;19.20;57.50;;;;;;4891777;29;20210;-80
2021/09/15 04:51:49;;;;;;;1.95;1.75;;;19.20;57.40;;;;;;4892584;29;20239;-85
2021/09/15 04:54:15;;;;;;;2.03;1.83;;;19.20;57.40;;;;;;4886670;29;20743;-84
2021/09/15 04:56:41;;;;;;;2.72;1.80;;;19.20;57.40;;;;;;4881988;29;20180;-83
2021/09/15 04:59:06;;;;;;;2.20;1.95;;;19.30;57.60;;;;;;4899676;29;20660;-84
2021/09/15 05:01:34;;;;;;;3.25;1.90;;;19.20;57.50;;;;;;4891331;29;20183;-80
2021/09/15 05:04:05;;;;;;;1.60;1.50;;;19.20;57.60;;;;;;4896276;29;20183;-81
2021/09/15 05:06:32;;;;;;;2.08;1.88;;;19.20;57.30;;;;;;4916743;29;20261;-82
2021/09/15 05:08:57;;;;;;;2.20;1.77;;;19.20;57.50;;;;;;4931654;29;20159;-81
2021/09/15 05:11:23;;;;;;;1.83;1.73;;;19.30;57.40;;;;;;4922442;29;20199;-82
2021/09/15 05:13:50;;;;;;;1.70;1.60;;;19.30;57.50;;;;;;4907908;29;20218;-80
2021/09/15 05:16:18;;;;;;;2.67;2.08;;;19.30;57.40;;;;;;4929028;29;20167;-82
2021/09/15 05:18:44;;;;;;;2.17;1.98;;;19.30;57.50;;;;;;4928572;29;20170;-82
2021/09/15 05:21:10;;;;;;;2.00;1.80;;;19.30;57.30;;;;;;4929878;29;20238;-81
2021/09/15 05:23:37;;;;;;;3.25;2.00;;;19.30;57.30;;;;;;4929938;29;20159;-82
2021/09/15 05:26:03;;;;;;;1.85;1.60;;;19.30;57.10;;;;;;4929557;29;20324;-80
2021/09/15 05:28:31;;;;;;;2.17;1.88;;;19.30;57.20;;;;;;4911169;29;20218;-80
2021/09/15 05:30:57;;;;;;;2.22;1.70;;;19.30;56.90;;;;;;4892025;29;20183;-80
2021/09/15 05:33:26;;;;;;;1.77;1.63;;;19.30;57.10;;;;;;4909191;29;20187;-80
2021/09/15 05:35:55;;;;;;;2.55;2.00;;;19.30;57.20;;;;;;4894704;29;20187;-81
2021/09/15 05:38:21;;;;;;;1.85;1.73;;;19.30;57.10;;;;;;4894150;29;20183;-81
2021/09/15 05:40:48;;;;;;;1.63;1.48;;;19.30;56.80;;;;;;4908520;29;20250;-81
2021/09/15 05:43:33;;;;;;;1.98;1.60;;;19.40;56.60;;;;;;4891547;29;20274;-81
2021/09/15 05:46:00;;;;;;;2.03;1.83;;;19.30;56.70;;;;;;4909939;29;20299;-82
2021/09/15 05:48:33;;;;;;;1.63;1.52;;;19.30;56.70;;;;;;4879682;29;20308;-83
2021/09/15 05:50:59;;;;;;;2.25;1.75;;;19.30;56.70;;;;;;4892536;29;20220;-81
2021/09/15 05:53:25;;;;;;;2.47;2.17;;;19.30;56.50;;;;;;4894370;29;20171;-82
2021/09/15 05:55:50;;;;;;;1.92;1.70;;;19.40;56.70;;;;;;4906784;29;20220;-82
2021/09/15 05:58:18;;;;;;;2.03;1.80;;;19.30;56.40;;;;;;4904058;29;20179;-84
2021/09/15 06:00:45;;;;;;;2.92;2.00;;;19.30;56.70;;;;;;4904698;29;20163;-81
2021/09/15 06:03:10;;;;;;;2.70;1.70;;;19.30;56.40;;;;;;4873946;29;20620;-86
2021/09/15 06:05:36;;;;;;;2.30;1.67;;;19.40;56.30;;;;;;4904381;29;20250;-83
2021/09/15 06:08:02;;;;;;;2.17;1.90;;;19.40;56.60;;;;;;4888212;29;20214;-85
2021/09/15 06:10:28;;;;;;;2.72;2.10;;;19.40;56.50;;;;;;4901702;29;20174;-85
2021/09/15 06:12:55;;;;;;;2.42;1.90;;;19.40;56.90;;;;;;4906572;29;20188;-83
2021/09/15 06:15:21;;;;;;;2.10;1.83;;;19.30;56.70;;;;;;4908787;29;20258;-82
2021/09/15 06:17:47;;;;;;;1.70;1.60;;;19.30;56.70;;;;;;4892495;29;20221;-81
2021/09/15 06:20:13;;;;;;;2.05;1.85;;;19.30;56.80;;;;;;4924265;29;20159;-83
2021/09/15 06:22:40;;;;;;;2.30;1.70;;;19.30;56.60;;;;;;4908007;29;20242;-85
2021/09/15 06:25:08;;;;;;;2.25;2.00;;;19.30;56.50;;;;;;4923627;29;20155;-82
2021/09/15 06:27:35;;;;;;;1.98;1.77;;;19.30;56.70;;;;;;4925711;29;20202;-84
2021/09/15 06:30:03;;;;;;;2.10;1.90;;;19.30;56.70;;;;;;4919084;29;20151;-83
2021/09/15 06:32:29;;;;;;;2.10;1.90;;;19.30;56.90;;;;;;4918793;29;20576;-84
2021/09/15 06:34:56;;;;;;;2.28;1.70;;;19.30;56.60;;;;;;4902468;29;20257;-84
2021/09/15 06:37:22;;;;;;;1.90;1.70;;;19.30;56.70;;;;;;4918808;29;20170;-85
2021/09/15 06:39:48;;;;;;;2.10;1.58;;;19.30;56.70;;;;;;4919200;29;20178;-85
2021/09/15 06:42:15;;;;;;;2.00;1.80;;;19.30;56.70;;;;;;4918736;29;20664;-83
2021/09/15 06:44:40;;;;;;;2.17;1.88;;;19.30;56.60;;;;;;4918487;29;20159;-83
2021/09/15 06:47:07;;;;;;;1.73;1.63;;;19.30;56.70;;;;;;4918902;29;20676;-83
2021/09/15 06:49:33;;;;;;;2.08;1.73;;;19.30;56.80;;;;;;4904187;29;20233;-82
2021/09/15 06:51:59;;;;;;;2.08;1.67;;;19.30;56.80;;;;;;4920382;29;20218;-85
2021/09/15 06:54:25;;;;;;;2.17;1.98;;;19.30;56.70;;;;;;4889170;29;20178;-83
2021/09/15 06:56:51;;;;;;;2.80;1.90;;;19.30;56.90;;;;;;4906475;29;20175;-86
2021/09/15 06:59:16;;;;;;;2.20;1.77;;;19.30;56.80;;;;;;4892928;29;20182;-81
2021/09/15 07:01:42;;;;;;;1.95;1.83;;;19.30;56.80;;;;;;4892568;29;20182;-85
2021/09/15 07:04:09;;;;;;;2.20;1.98;;;19.40;56.80;;;;;;4906281;29;20655;-85
2021/09/15 07:06:35;;;;;;;2.78;1.80;;;19.40;56.90;;;;;;4889924;29;20273;-82
2021/09/15 07:09:01;;;;;;;2.20;1.70;;;19.40;56.60;;;;;;4920263;29;20159;-84
2021/09/15 07:11:27;;;;;;;1.98;1.77;;;19.40;56.40;;;;;;4904773;29;20169;-81
2021/09/15 07:13:52;;;;;;;1.98;1.77;;;19.50;56.60;;;;;;4921852;29;20159;-85
2021/09/15 07:16:18;;;;;;;2.85;1.75;;;19.50;56.80;;;;;;4924244;29;20171;-85
2021/09/15 07:18:46;;;;;;;2.15;1.60;;;19.40;56.80;;;;;;4910252;29;20167;-81
2021/09/15 07:21:13;;;;;;;2.10;1.90;;;19.40;56.70;;;;;;4927517;29;20169;-86
2021/09/15 07:23:40;;;;;;;2.15;1.65;;;19.50;56.70;;;;;;4898308;29;20175;-82
2021/09/15 07:26:07;;;;;;;1.83;1.63;;;19.50;56.60;;;;;;4899348;29;20566;-82
2021/09/15 07:28:33;;;;;;;3.28;2.03;;;19.50;56.60;;;;;;4927532;29;20166;-81
2021/09/15 07:31:02;;;;;;;2.25;1.95;;;19.60;56.80;;;;;;4925017;29;20163;-84
2021/09/15 07:33:32;;;;;;;2.00;1.70;;;19.60;56.50;;;;;;4894360;29;20629;-81
2021/09/15 07:36:00;;;;;;;2.42;1.90;;;19.60;56.50;;;;;;4911142;29;20558;-86
2021/09/15 07:38:27;;;;;;;3.40;1.90;;;19.60;56.50;;;;;;4912641;29;20163;-81
2021/09/15 07:40:53;;;;;;;1.88;1.70;;;19.60;56.70;;;;;;4927186;29;20163;-85
2021/09/15 07:43:18;;;;;;;2.22;2.03;;;19.60;56.90;;;;;;4911827;29;20163;-84
2021/09/15 07:45:44;;;;;;;2.15;1.80;;;19.50;56.90;;;;;;4924019;29;20194;-84
2021/09/15 07:48:10;;;;;;;3.17;1.80;;;19.50;56.90;;;;;;4903002;29;20242;-83
2021/09/15 07:50:36;;;;;;;2.20;2.00;;;19.50;57.60;;;;;;4892323;29;20175;-81
2021/09/15 07:53:03;;;;;;;2.08;1.77;;;19.50;57.20;;;;;;4912598;29;20179;-82
2021/09/15 07:55:29;;;;;;;3.25;2.03;;;19.50;57.10;;;;;;4911350;29;20178;-84
2021/09/15 07:57:55;;;;;;;2.30;2.10;;;19.50;57.20;;;;;;4895977;29;20249;-84
2021/09/15 08:00:21;;;;;;;1.98;1.77;;;19.60;57.10;;;;;;4928200;29;20183;-85
2021/09/15 08:02:47;;;;;;;2.67;2.03;;;19.60;57.10;;;;;;4893702;29;20574;-85
2021/09/15 08:05:14;;;;;;;2.35;1.63;;;19.50;57.00;;;;;;4892457;29;20183;-83
2021/09/15 08:07:42;;;;;;;2.08;1.75;;;19.60;56.70;;;;;;4922595;29;20194;-86
2021/09/15 08:10:08;;;;;;;1.95;1.75;;;19.60;56.70;;;;;;4892477;29;20190;-88
2021/09/15 08:12:34;;;;;;;2.08;1.88;;;19.60;56.60;;;;;;4906507;29;20191;-85
2021/09/15 08:15:02;;;;;;;2.15;1.95;;;19.70;56.60;;;;;;4908089;29;20166;-83
2021/09/15 08:17:28;;;;;;;1.73;1.63;;;19.70;56.60;;;;;;4909843;29;20189;-85
2021/09/15 08:19:53;;;;;;;2.20;1.70;;;19.70;56.50;;;;;;4908736;29;20159;-84
2021/09/15 08:22:19;;;;;;;1.65;1.55;;;19.70;56.60;;;;;;4894337;29;20179;-83
2021/09/15 08:24:46;;;;;;;2.13;1.60;;;19.70;56.60;;;;;;4907840;29;20256;-83
2021/09/15 08:27:12;;;;;;;2.65;1.60;;;19.70;56.50;;;;;;4907522;29;20222;-84
2021/09/15 08:29:37;;;;;;;2.08;1.55;;;19.60;56.40;;;;;;4910996;29;20175;-85
2021/09/15 08:32:04;;;;;;;2.95;1.88;;;19.70;56.30;;;;;;4912496;29;20174;-84
2021/09/15 08:34:30;;;;;;;1.90;1.70;;;19.70;56.30;;;;;;4927527;29;20168;-83
2021/09/15 08:36:56;;;;;;;3.10;1.80;;;19.70;56.10;;;;;;4925648;29;20529;-84
2021/09/15 08:39:21;;;;;;;2.33;1.65;;;19.70;56.30;;;;;;4893899;29;20187;-82
2021/09/15 08:41:51;;;;;;;1.92;1.70;;;19.70;56.20;;;;;;4926661;29;20155;-84
2021/09/15 08:44:17;;;;;;;1.58;1.35;;;19.70;56.10;;;;;;4925409;29;21085;-83
2021/09/15 08:46:45;;;;;;;2.40;1.52;;;19.70;56.10;;;;;;4927315;29;20211;-85
2021/09/15 08:49:11;;;;;;;2.25;1.58;;;19.70;56.10;;;;;;4908328;29;20214;-83
2021/09/15 08:51:36;;;;;;;1.77;1.63;;;19.70;56.20;;;;;;4924045;29;20194;-83
2021/09/15 08:54:02;;;;;;;2.28;1.73;;;19.60;56.30;;;;;;4908860;29;20217;-82
2021/09/15 08:56:28;;;;;;;2.28;1.80;;;19.60;56.50;;;;;;4911636;29;20163;-83
2021/09/15 08:58:54;;;;;;;1.92;1.58;;;19.60;56.40;;;;;;4926647;29;20629;-82
2021/09/15 09:01:21;;;;;;;2.20;1.70;;;19.60;56.20;;;;;;4926278;29;20238;-85
2021/09/15 09:03:53;;;;;;;2.05;1.88;;;19.70;56.10;;;;;;4926922;29;20255;-84
2021/09/15 09:06:23;;;;;;;2.33;1.80;;;19.70;55.90;;;;;;4925672;29;20226;-83
2021/09/15 09:08:56;;;;;;;3.35;1.67;;;19.70;55.40;;;;;;4905976;29;20166;-84
2021/09/15 09:11:23;;;;;;;2.72;1.60;;;19.80;55.70;;;;;;4925072;29;20175;-83
2021/09/15 09:13:53;;;;;;;1.52;1.42;;;19.70;55.30;;;;;;4924639;29;20246;-85
2021/09/15 09:16:21;;;;;;;2.72;1.73;;;19.70;55.50;;;;;;4907282;29;20234;-83
2021/09/15 09:19:04;;;;;;;1.65;1.50;;;19.80;55.50;;;;;;4904073;29;20159;-86
2021/09/15 09:21:31;;;;;;;1.58;1.48;;;19.70;55.10;;;;;;4907125;29;20163;-85
2021/09/15 09:23:58;;;;;;;2.20;1.60;;;19.70;54.90;;;;;;4913950;29;20167;-84
2021/09/15 09:26:48;;;;;;;1.80;1.70;;;19.70;54.70;;;;;;4900429;29;20183;-85
2021/09/15 09:29:21;;;;;;;1.90;1.70;;;19.80;55.10;;;;;;4917108;29;20174;-85
2021/09/15 09:32:05;;;;;;;1.52;1.38;;;19.80;54.70;;;;;;4899093;29;20219;-86
2021/09/15 09:34:45;;;;;;;1.98;1.58;;;19.70;54.70;;;;;;4911166;29;20162;-84
2021/09/15 09:37:16;;;;;;;1.58;1.48;;;19.80;54.30;;;;;;4918642;29;20214;-84
2021/09/15 09:39:47;;;;;;;1.75;1.55;;;19.80;54.10;;;;;;4915098;29;20177;-86
2021/09/15 09:42:42;;;;;;;;;;;;;;;;;;;;;
2021/09/15 09:45:52;;;;;;;4.05;1.20;;;19.80;53.90;;;;;;4871336;29;20283;-84
2021/09/15 09:48:35;;;;;;;1.67;1.40;;;19.80;53.80;;;;;;4868832;29;20243;-80
2021/09/15 09:51:04;;;;;;;1.70;1.50;;;19.80;54.00;;;;;;4864222;29;20608;-81
2021/09/15 09:53:34;;;;;;;2.95;1.40;;;19.80;53.90;;;;;;4840665;29;20273;-81
2021/09/15 09:56:02;;;;;;;1.80;1.40;;;19.80;53.90;;;;;;4825960;29;20196;-81
2021/09/15 09:58:28;;;;;;;2.70;1.45;;;19.80;54.00;;;;;;4840834;29;20182;-81
2021/09/15 10:00:55;;;;;;;1.95;1.60;;;19.80;53.50;;;;;;4825984;29;20189;-81
2021/09/15 10:03:21;;;;;;;2.42;1.40;;;19.90;53.80;;;;;;4826898;29;20239;-81
2021/09/15 10:05:48;;;;;;;1.70;1.60;;;19.90;53.40;;;;;;4827415;29;20304;-82
2021/09/15 10:08:16;;;;;;;1.33;1.23;;;19.90;53.60;;;;;;4830921;29;20214;-82
2021/09/15 10:10:42;;;;;;;1.92;1.60;;;19.90;53.50;;;;;;4846945;29;20228;-81
2021/09/15 10:13:09;;;;;;;1.42;1.33;;;19.80;53.40;;;;;;4846981;29;20190;-81
2021/09/15 10:15:45;;;;;;;1.90;1.40;;;19.90;53.50;;;;;;4850832;29;20184;-81
2021/09/15 10:18:11;;;;;;;1.75;1.48;;;19.90;53.30;;;;;;4885142;29;20282;-82
2021/09/15 10:20:38;;;;;;;1.52;1.30;;;19.90;53.30;;;;;;4885641;29;20168;-82
2021/09/15 10:23:32;;;;;;;1.60;1.50;;;19.90;53.40;;;;;;4885433;29;20164;-81
2021/09/15 10:25:58;;;;;;;1.58;1.30;;;19.90;53.30;;;;;;4907240;29;20202;-82
2021/09/15 10:28:24;;;;;;;1.58;1.25;;;19.90;53.20;;;;;;4907506;29;20185;-81
2021/09/15 10:30:51;;;;;;;2.42;1.42;;;19.80;53.20;;;;;;4926483;29;20602;-83
2021/09/15 10:33:44;;;;;;;1.50;1.33;;;19.90;53.50;;;;;;4912072;29;20202;-85
2021/09/15 10:36:33;;;;;;;1.90;1.35;;;19.80;53.20;;;;;;4918609;29;20166;-84
2021/09/15 10:38:59;;;;;;;3.03;1.40;;;19.80;53.20;;;;;;4903767;29;20238;-83
2021/09/15 10:41:42;;;;;;;1.80;1.40;;;19.80;53.10;;;;;;4903843;29;20154;-84
2021/09/15 10:44:10;;;;;;;1.73;1.40;;;19.90;53.10;;;;;;4901314;29;20166;-83
2021/09/15 10:46:37;;;;;;;1.80;1.20;;;19.90;53.00;;;;;;4884825;29;20179;-82
2021/09/15 10:49:18;;;;;;;1.38;1.20;;;19.80;53.10;;;;;;4905788;29;20229;-82
2021/09/15 10:51:44;;;;;;;1.63;1.52;;;19.90;53.00;;;;;;4923715;29;20166;-82
2021/09/15 10:54:46;;;;;;;1.83;1.50;;;19.90;53.00;;;;;;4908798;29;20174;-82
2021/09/15 10:57:14;;;;;;;1.77;1.63;;;19.90;53.20;;;;;;4908510;29;20577;-80
2021/09/15 10:59:58;;;;;;;1.77;1.50;;;19.90;53.10;;;;;;4904775;29;20178;-81
2021/09/15 11:02:31;;;;;;;1.40;1.30;;;19.80;52.90;;;;;;4902610;29;20607;-81
2021/09/15 11:04:58;;;;;;;1.35;1.25;;;19.80;52.70;;;;;;4918346;29;20656;-82
2021/09/15 11:07:58;;;;;;;1.73;1.55;;;19.90;52.20;;;;;;4903145;29;20194;-81
2021/09/15 11:10:36;;;;;;;1.88;1.60;;;19.90;52.30;;;;;;4921441;29;20167;-81
2021/09/15 11:13:13;;;;;;;2.03;1.73;;;19.90;52.50;;;;;;4918800;29;20205;-81
2021/09/15 11:15:42;;;;;;;1.65;1.50;;;19.90;52.60;;;;;;4903132;29;20196;-81
2021/09/15 11:18:08;;;;;;;1.70;1.60;;;19.90;52.30;;;;;;4925064;29;20155;-81
2021/09/15 11:20:36;;;;;;;1.30;1.20;;;19.90;52.70;;;;;;4925154;29;20170;-81
2021/09/15 11:23:08;;;;;;;3.00;1.60;;;19.90;52.50;;;;;;4926769;29;20248;-81
2021/09/15 11:25:34;;;;;;;1.40;1.30;;;19.90;52.50;;;;;;4926951;29;20588;-82
2021/09/15 11:28:14;;;;;;;1.30;1.20;;;19.90;52.40;;;;;;4917173;29;20649;-81
2021/09/15 11:30:42;;;;;;;1.80;1.70;;;19.90;52.70;;;;;;4922335;29;20177;-82
2021/09/15 11:33:09;;;;;;;1.40;1.30;;;19.80;52.60;;;;;;4925106;29;20182;-83
2021/09/15 11:35:38;;;;;;;1.63;1.35;;;19.80;52.60;;;;;;4922323;29;20634;-83
2021/09/15 11:38:05;;;;;;;1.85;1.50;;;19.80;52.80;;;;;;4921941;29;20740;-84
2021/09/15 11:40:31;;;;;;;1.65;1.55;;;19.80;52.70;;;;;;4925244;29;20242;-83
2021/09/15 11:43:03;;;;;;;1.77;1.40;;;19.80;52.60;;;;;;4924263;29;20151;-81
2021/09/15 11:45:28;;;;;;;1.60;1.50;;;19.80;52.30;;;;;;4917742;29;20242;-81
2021/09/15 11:47:55;;;;;;;1.48;1.30;;;19.80;52.50;;;;;;4917174;29;20266;-81
2021/09/15 11:50:24;;;;;;;1.80;1.55;;;19.90;52.50;;;;;;4917636;29;20213;-82
2021/09/15 11:52:55;;;;;;;1.50;1.30;;;19.90;52.20;;;;;;4901216;29;20598;-82
2021/09/15 11:55:21;;;;;;;1.35;1.25;;;19.90;52.10;;;;;;4904171;29;20162;-83
2021/09/15 11:57:48;;;;;;;3.00;1.70;;;19.90;52.10;;;;;;4892995;29;20685;-83
2021/09/15 12:00:14;;;;;;;2.28;1.50;;;19.90;52.10;;;;;;4907322;29;20194;-84
2021/09/15 12:02:40;;;;;;;1.52;1.42;;;19.90;51.90;;;;;;4888530;29;20237;-83
2021/09/15 12:05:07;;;;;;;1.65;1.42;;;19.90;51.70;;;;;;4889514;29;20202;-84
2021/09/15 12:07:33;;;;;;;1.50;1.40;;;19.90;52.00;;;;;;4893627;29;20194;-84
2021/09/15 12:09:59;;;;;;;1.50;1.40;;;19.90;52.60;;;;;;4895468;29;20250;-84
2021/09/15 12:12:27;;;;;;;1.90;1.50;;;19.80;51.80;;;;;;4894522;29;20163;-84
2021/09/15 12:14:57;;;;;;;1.35;1.23;;;19.80;51.90;;;;;;4924590;29;20162;-83
2021/09/15 12:17:23;;;;;;;1.52;1.42;;;19.90;52.30;;;;;;4908126;29;20170;-84
2021/09/15 12:19:49;;;;;;;1.55;1.40;;;19.80;52.10;;;;;;4893472;29;20534;-83
2021/09/15 12:22:20;;;;;;;1.30;1.20;;;19.80;52.30;;;;;;4891564;29;20159;-83
2021/09/15 12:25:06;;;;;;;1.67;1.30;;;19.80;52.30;;;;;;4878104;29;20167;-83
2021/09/15 12:27:32;;;;;;;1.70;1.60;;;19.80;51.90;;;;;;4877683;29;20226;-84
2021/09/15 12:30:01;;;;;;;2.20;1.38;;;19.90;52.00;;;;;;4868554;29;20224;-83
2021/09/15 12:32:30;;;;;;;1.48;1.38;;;19.90;51.80;;;;;;4882972;29;20268;-83
2021/09/15 12:34:56;;;;;;;1.88;1.50;;;19.90;51.70;;;;;;4884010;29;20180;-82
2021/09/15 12:37:21;;;;;;;1.40;1.30;;;20.00;51.60;;;;;;4884458;29;20174;-84
2021/09/15 12:39:55;;;;;;;2.67;1.33;;;20.00;51.70;;;;;;4869027;29;20192;-83
2021/09/15 12:42:30;;;;;;;1.38;1.27;;;19.90;51.60;;;;;;4869949;29;20278;-83
2021/09/15 12:45:04;;;;;;;1.48;1.38;;;19.80;51.80;;;;;;4870750;29;20188;-83
2021/09/15 12:47:37;;;;;;;2.30;1.30;;;19.90;52.30;;;;;;4869266;29;20201;-82
2021/09/15 12:50:20;;;;;;;1.30;1.20;;;19.80;52.60;;;;;;4885645;29;20200;-84
2021/09/15 12:52:48;;;;;;;1.50;1.40;;;19.80;52.30;;;;;;4882917;29;20168;-83
2021/09/15 12:55:20;;;;;;;1.40;1.30;;;19.80;52.30;;;;;;4870862;29;20184;-82
2021/09/15 12:58:05;;;;;;;2.65;1.25;;;19.80;52.10;;;;;;4854226;29;20189;-84
2021/09/15 13:00:34;;;;;;;1.48;1.30;;;19.90;52.10;;;;;;4867211;29;20270;-84